Aviation Digital Data Service (ADDS)

Output produced by METARs form (0632 UTC 08 July 2015)
found at http://aviationweather.gov/adds/metars/
 
KRUT 080535Z 0806/0906 14005KT P6SM BKN150 
     FM081000 00000KT 3SM -SHRA BR OVC025 
     FM081300 00000KT P6SM OVC035 
     FM081700 34009KT P6SM SCT200 AMD LTD TO CLD VIS AND WIND